createdAt,value
2022-10-05T00:03:39.295Z,4.52
2022-10-05T00:08:41.981Z,4.60
2022-10-05T00:13:44.714Z,4.61
2022-10-05T00:18:50.829Z,4.67
2022-10-05T00:23:56.391Z,4.72
2022-10-05T00:28:59.392Z,4.69
2022-10-05T00:34:02.376Z,4.79
2022-10-05T00:39:05.258Z,4.78
2022-10-05T00:44:17.143Z,4.80
2022-10-05T00:49:33.396Z,4.81
2022-10-05T00:54:44.742Z,4.82
2022-10-05T01:00:05.872Z,4.83
2022-10-05T01:05:14.612Z,4.84
2022-10-05T01:10:20.185Z,4.83
2022-10-05T01:15:28.699Z,4.88
2022-10-05T01:20:39.998Z,4.93
2022-10-05T01:25:50.279Z,5.02
2022-10-05T01:31:09.130Z,5.03
2022-10-05T01:36:17.536Z,5.04
2022-10-05T01:41:41.733Z,5.02
2022-10-05T01:47:03.592Z,4.97
2022-10-05T01:52:09.263Z,4.94
2022-10-05T01:57:14.819Z,4.97
2022-10-05T02:02:19.671Z,4.94
2022-10-05T02:07:37.576Z,5.10
2022-10-05T02:12:40.895Z,5.13
2022-10-05T02:17:49.400Z,5.21
2022-10-05T02:22:56.711Z,5.21
2022-10-05T02:28:14.049Z,5.29
2022-10-05T02:33:32.758Z,5.25
2022-10-05T02:38:54.596Z,5.04
2022-10-05T02:44:00.389Z,4.90
2022-10-05T02:49:32.534Z,4.81
2022-10-05T02:54:47.564Z,4.64
2022-10-05T03:00:01.410Z,4.37
2022-10-05T03:05:15.597Z,4.38
2022-10-05T03:10:42.053Z,4.27
2022-10-05T03:16:02.107Z,4.25
2022-10-05T03:21:27.806Z,4.24
2022-10-05T03:26:53.170Z,4.31
2022-10-05T03:32:14.381Z,4.48
2022-10-05T03:37:39.836Z,4.49
2022-10-05T03:42:48.509Z,4.53
2022-10-05T03:48:05.864Z,4.70
2022-10-05T03:53:21.679Z,4.58
2022-10-05T03:58:33.945Z,4.41
2022-10-05T04:03:44.545Z,4.29
2022-10-05T04:08:55.551Z,4.27
2022-10-05T04:14:23.554Z,4.24
2022-10-05T04:19:33.229Z,4.19
2022-10-05T04:24:41.262Z,4.14
2022-10-05T04:29:51.949Z,4.09
2022-10-05T04:35:28.753Z,4.15
2022-10-05T04:40:49.823Z,4.20
2022-10-05T04:46:04.524Z,4.25
2022-10-05T04:51:19.967Z,4.24
2022-10-05T04:56:30.748Z,4.18
2022-10-05T05:02:07.865Z,4.10
2022-10-05T05:07:45.474Z,4.27
2022-10-05T05:12:59.762Z,4.19
2022-10-05T05:18:26.888Z,4.24
2022-10-05T05:23:43.142Z,4.31
2022-10-05T05:29:02.327Z,4.24
2022-10-05T05:34:17.262Z,4.05
2022-10-05T05:39:28.722Z,3.95
2022-10-05T05:44:39.015Z,4.09
2022-10-05T05:49:52.164Z,4.15
2022-10-05T05:55:14.114Z,4.07
2022-10-05T06:00:22.334Z,4.28
2022-10-05T06:06:02.777Z,4.35
2022-10-05T06:11:23.511Z,4.38
2022-10-05T06:16:41.434Z,4.43
2022-10-05T06:22:17.672Z,4.48
2022-10-05T06:27:21.265Z,4.43
2022-10-05T06:32:36.846Z,4.48
2022-10-05T06:37:58.558Z,4.58
2022-10-05T06:43:36.068Z,4.53
2022-10-05T06:49:29.805Z,4.59
2022-10-05T06:55:20.651Z,4.67
2022-10-05T07:00:40.842Z,4.76
2022-10-05T07:06:00.481Z,4.78
2022-10-05T07:11:36.389Z,4.84
2022-10-05T07:17:08.139Z,4.72
2022-10-05T07:22:52.593Z,4.77
2022-10-05T07:28:01.364Z,4.79
2022-10-05T07:33:14.392Z,4.83
2022-10-05T07:38:22.196Z,4.73
2022-10-05T07:44:01.145Z,4.73
2022-10-05T07:49:32.088Z,4.85
2022-10-05T07:55:10.370Z,4.96
2022-10-05T08:00:20.789Z,5.06
2022-10-05T08:05:30.525Z,5.19
2022-10-05T08:10:55.640Z,5.30
2022-10-05T08:15:58.665Z,5.34
2022-10-05T08:21:01.722Z,5.30
2022-10-05T08:26:25.170Z,5.27
2022-10-05T08:31:32.129Z,5.24
2022-10-05T08:36:40.951Z,5.29
2022-10-05T08:42:05.036Z,5.22
2022-10-05T08:47:49.606Z,5.20
2022-10-05T08:53:32.160Z,5.23
2022-10-05T08:58:54.629Z,5.34
2022-10-05T09:04:20.638Z,5.64
2022-10-05T09:09:29.355Z,5.81
2022-10-05T09:15:01.504Z,5.97
2022-10-05T09:20:47.372Z,6.00
2022-10-05T09:26:30.580Z,6.11
2022-10-05T09:32:05.771Z,6.05
2022-10-05T09:37:41.094Z,6.00
2022-10-05T09:43:11.565Z,5.99
2022-10-05T09:48:41.245Z,5.91
2022-10-05T09:54:02.628Z,5.83
2022-10-05T09:59:23.335Z,5.62
2022-10-05T10:05:26.114Z,5.26
2022-10-05T10:11:02.343Z,5.22
2022-10-05T10:16:46.061Z,5.04
2022-10-05T10:21:50.126Z,5.16
2022-10-05T10:27:16.911Z,5.09
2022-10-05T10:32:47.321Z,4.94
2022-10-05T10:38:05.436Z,4.96
2022-10-05T10:43:26.934Z,4.93
2022-10-05T10:48:29.501Z,4.97
2022-10-05T10:53:50.553Z,4.97
2022-10-05T10:59:11.860Z,4.96
2022-10-05T11:04:54.241Z,4.89
2022-10-05T11:10:00.155Z,4.91
2022-10-05T11:15:40.040Z,4.92
2022-10-05T11:20:48.624Z,4.93
2022-10-05T11:26:12.905Z,4.94
2022-10-05T11:31:31.646Z,4.96
2022-10-05T11:37:11.980Z,4.85
2022-10-05T11:42:45.547Z,4.74
2022-10-05T11:48:17.324Z,4.65
2022-10-05T11:53:27.455Z,4.48
2022-10-05T11:58:42.303Z,4.42
2022-10-05T12:04:14.640Z,4.09
2022-10-05T12:09:20.313Z,3.80
2022-10-05T12:14:34.386Z,3.81
2022-10-05T12:19:41.554Z,3.97
2022-10-05T12:25:06.634Z,3.80
2022-10-05T12:30:12.079Z,3.65
2022-10-05T12:35:53.784Z,3.65
2022-10-05T12:41:18.243Z,3.63
2022-10-05T12:46:42.287Z,3.41
2022-10-05T12:51:56.602Z,3.22
2022-10-05T12:57:38.566Z,3.36
2022-10-05T13:02:49.363Z,3.38
2022-10-05T13:08:18.307Z,3.42
2022-10-05T13:13:53.656Z,3.39
2022-10-05T13:19:21.075Z,2.99
2022-10-05T13:24:32.085Z,2.40
2022-10-05T13:29:58.957Z,2.41
2022-10-05T13:35:35.575Z,2.28
2022-10-05T13:40:47.099Z,2.27
2022-10-05T13:45:57.268Z,2.29
2022-10-05T13:51:00.197Z,2.10
2022-10-05T13:56:23.108Z,1.87
2022-10-05T14:01:51.969Z,1.63
2022-10-05T14:06:54.795Z,1.45
2022-10-05T14:12:03.743Z,1.26
2022-10-05T14:17:33.799Z,0.88
2022-10-05T14:22:42.549Z,0.93
2022-10-05T14:28:04.692Z,0.92
2022-10-05T14:33:15.646Z,0.91
2022-10-05T14:38:32.701Z,0.89
2022-10-05T14:43:35.978Z,0.85
2022-10-05T14:48:42.815Z,0.81
2022-10-05T14:53:49.359Z,0.74
2022-10-05T14:59:14.678Z,0.75
2022-10-05T15:04:53.192Z,0.69
2022-10-05T15:10:57.623Z,0.59
2022-10-05T15:16:00.267Z,0.53
2022-10-05T15:21:21.962Z,0.53
2022-10-05T15:27:10.535Z,0.48
2022-10-05T15:32:31.650Z,0.52
2022-10-05T15:37:43.069Z,0.43
2022-10-05T15:42:45.688Z,0.20
2022-10-05T15:48:20.525Z,0.04
2022-10-05T15:53:35.014Z,0.19
2022-10-05T15:58:56.227Z,0.17
2022-10-05T16:04:18.798Z,0.28
2022-10-05T16:09:56.842Z,0.14
2022-10-05T16:15:16.683Z,0.00
2022-10-05T16:20:36.097Z,0.11
2022-10-05T16:25:47.704Z,0.24
2022-10-05T16:30:50.375Z,0.23
2022-10-05T16:36:16.587Z,0.06
2022-10-05T16:41:43.316Z,0.26
2022-10-05T16:46:47.181Z,0.17
2022-10-05T16:52:05.370Z,0.13
2022-10-05T16:57:28.802Z,0.05
2022-10-05T17:02:41.950Z,0.01
2022-10-05T17:07:47.616Z,0.02
2022-10-05T17:12:59.465Z,0.01
2022-10-05T17:18:20.332Z,0.02
2022-10-05T17:23:31.627Z,-0.03
2022-10-05T17:28:42.636Z,-0.26
2022-10-05T17:34:00.472Z,-0.26
2022-10-05T17:39:49.506Z,-0.40
2022-10-05T17:44:58.755Z,-0.52
2022-10-05T17:50:19.773Z,-0.58
2022-10-05T17:55:39.707Z,-0.57
2022-10-05T18:01:03.097Z,-0.56
2022-10-05T18:06:24.703Z,-0.67
2022-10-05T18:11:35.696Z,-0.77
2022-10-05T18:17:00.447Z,-0.85
2022-10-05T18:22:05.348Z,-1.01
2022-10-05T18:27:26.410Z,-1.11
2022-10-05T18:32:53.935Z,-0.98
2022-10-05T18:38:33.141Z,-0.96
2022-10-05T18:43:42.930Z,-0.92
2022-10-05T18:48:50.193Z,-0.88
2022-10-05T18:54:18.815Z,-0.79
2022-10-05T18:59:40.219Z,-0.62
2022-10-05T19:10:56.139Z,-0.33
2022-10-05T19:16:18.965Z,-0.44
2022-10-05T19:21:59.249Z,-0.45
2022-10-05T19:27:14.044Z,-0.24
2022-10-05T19:32:58.351Z,-0.05
2022-10-05T19:38:16.224Z,0.08
2022-10-05T19:43:46.787Z,0.34
2022-10-05T19:48:51.095Z,0.28
2022-10-05T19:53:56.335Z,-0.03
2022-10-05T19:59:11.477Z,-0.36
2022-10-05T20:04:34.574Z,-0.51
2022-10-05T20:10:00.805Z,-0.41
2022-10-05T20:15:26.856Z,-0.37
2022-10-05T20:20:36.563Z,-0.40
2022-10-05T20:25:40.654Z,-0.53
2022-10-05T20:30:43.298Z,-0.72
2022-10-05T20:35:46.274Z,-0.88
2022-10-05T20:40:48.968Z,-0.94
2022-10-05T20:45:54.102Z,-1.03
2022-10-05T20:50:56.576Z,-1.15
2022-10-05T20:56:02.751Z,-1.23
2022-10-05T21:01:20.799Z,-1.29
2022-10-05T21:06:27.870Z,-1.29
2022-10-05T21:11:30.737Z,-1.26
2022-10-05T21:16:37.096Z,-1.49
2022-10-05T21:21:40.615Z,-1.30
2022-10-05T21:26:44.672Z,-1.36
2022-10-05T21:31:47.514Z,-1.52
2022-10-05T21:36:50.299Z,-1.30
2022-10-05T21:41:53.231Z,-1.33
2022-10-05T21:46:56.944Z,-1.14
2022-10-05T21:52:00.947Z,-1.10
2022-10-05T21:57:03.821Z,-0.62
2022-10-05T22:02:06.617Z,-0.41
2022-10-05T22:07:20.077Z,-0.29
2022-10-05T22:12:23.926Z,-0.33
2022-10-05T22:17:31.423Z,-0.35
2022-10-05T22:22:34.163Z,-0.29
2022-10-05T22:27:37.270Z,-0.22
2022-10-05T22:32:39.987Z,-0.11
2022-10-05T22:37:42.646Z,0.03
2022-10-05T22:42:45.254Z,-0.04
2022-10-05T22:47:48.437Z,0.07
2022-10-05T22:52:52.799Z,0.22
2022-10-05T22:57:55.747Z,0.28
2022-10-05T23:02:58.554Z,0.19
2022-10-05T23:08:02.667Z,0.13
2022-10-05T23:13:05.350Z,0.12
2022-10-05T23:18:08.074Z,0.20
2022-10-05T23:23:11.237Z,0.26
2022-10-05T23:28:14.016Z,0.38
2022-10-05T23:33:16.805Z,0.47
2022-10-05T23:38:19.460Z,0.56
2022-10-05T23:43:22.806Z,0.61
2022-10-05T23:48:27.197Z,0.65
2022-10-05T23:53:30.155Z,0.60
2022-10-05T23:58:32.932Z,0.61
